This is the latest recevied weather packets stored in our database for station/object K0SDS. If no packets are shown the sender has not sent any weather packets the latest 1 day(s).
| Time | Temp. | Humidity | Pressure | Rain* | Wind** | Luminosity | Snow |
|---|---|---|---|---|---|---|---|
| 1836274826 | 20° C | 77% | 1015.8 hPa | 0 mm | 0.45 m/s, 77° | 0 W/m² | - |
| 1836274524 | 20° C | 77% | 1015.9 hPa | 0 mm | 0.45 m/s, 78° | 0 W/m² | - |
| 1836274378 | 20° C | 77% | 1015.8 hPa | 0 mm | 0 m/s | 0 W/m² | - |
| 1836274222 | 20° C | 77% | 1015.8 hPa | 0 mm | 0 m/s | 0 W/m² | - |
| 1836273917 | 20° C | 77% | 1015.9 hPa | 0 mm | 0.45 m/s, 80° | 0 W/m² | - |
| 1778045075 | 7.78° C | 85% | 1015.2 hPa | 0 mm | 0.89 m/s, 74° | 0 W/m² | - |
| 1778044772 | 7.78° C | 86% | 1015 hPa | 1.78 mm | 1.79 m/s, 82° | 0 W/m² | - |
| 1778044469 | 7.78° C | 86% | 1015.2 hPa | 1.78 mm | 0.45 m/s, 78° | 0 W/m² | - |
| 1778044166 | 7.78° C | 87% | 1015.2 hPa | 1.78 mm | 0.89 m/s, 56° | 0 W/m² | - |
| 1778043864 | 7.78° C | 87% | 1014.9 hPa | 0 mm | 0.45 m/s, 54° | 0 W/m² | - |
| 1778043561 | 7.78° C | 87% | 1015.3 hPa | 0 mm | 0.45 m/s, 69° | 0 W/m² | - |
| 1778043258 | 7.78° C | 85% | 1015.5 hPa | 0 mm | 0 m/s | 0 W/m² | - |
| 1778042954 | 7.78° C | 85% | 1015.4 hPa | 1.27 mm | 0 m/s | 0 W/m² | - |
| 1778042652 | 8.33° C | 84% | 1015.6 hPa | 1.27 mm | 0.45 m/s, 75° | 0 W/m² | - |
| 1778042349 | 8.33° C | 81% | 1015.7 hPa | 1.27 mm | 1.79 m/s, 78° | 0 W/m² | - |
| 1778042046 | 8.89° C | 80% | 1015.5 hPa | 0 mm | 0.89 m/s, 354° | 0 W/m² | - |
| 1778041744 | 8.89° C | 78% | 1015.6 hPa | 0 mm | 0.89 m/s, 60° | 0 W/m² | - |
| 1778041443 | 8.89° C | 76% | 1015.4 hPa | 1.78 mm | 1.34 m/s, 71° | 0 W/m² | - |
| 1778041141 | 10° C | 72% | 1015.4 hPa | 1.78 mm | 2.24 m/s, 10° | 0 W/m² | - |
| 1778040838 | 9.44° C | 70% | 1015 hPa | 0 mm | 2.24 m/s, 7° | 0 W/m² | - |
| 1778040535 | 10° C | 63% | 1015.4 hPa | 0 mm | 1.79 m/s, 346° | 0 W/m² | - |
| 1778040233 | 10° C | 69% | 1015.1 hPa | 0 mm | 0.45 m/s, 105° | 0 W/m² | - |
| 1778039928 | 10.56° C | 67% | 1014.9 hPa | 0 mm | 0.45 m/s, 73° | 0 W/m² | - |
| 1778039626 | 10.56° C | 66% | 1015 hPa | 0 mm | 0 m/s | 0 W/m² | - |
| 1778039323 | 10.56° C | 64% | 1014.7 hPa | 0 mm | 0.89 m/s, 93° | 0 W/m² | - |
* Rain latest hour (hover to see other rain measurements)
** Current wind speed in m/s (hover to see current wind gust speed)